createdAt,value
2019-03-15T00:00:47.643Z,6.09
2019-03-15T00:01:47.632Z,6.13
2019-03-15T00:02:47.620Z,6.13
2019-03-15T00:03:47.611Z,6.22
2019-03-15T00:04:47.607Z,6.18
2019-03-15T00:05:47.597Z,6.16
2019-03-15T00:06:47.584Z,6.13
2019-03-15T00:07:47.565Z,6.13
2019-03-15T00:08:47.552Z,6.07
2019-03-15T00:09:48.492Z,6.16
2019-03-15T00:10:47.588Z,6.11
2019-03-15T00:11:47.519Z,6.13
2019-03-15T00:12:47.507Z,6.13
2019-03-15T00:13:47.496Z,6.11
2019-03-15T00:14:47.485Z,6.29
2019-03-15T00:15:47.476Z,6.19
2019-03-15T00:16:47.483Z,6.11
2019-03-15T00:17:47.452Z,6.30
2019-03-15T00:18:47.442Z,6.28
2019-03-15T00:19:47.443Z,6.26
2019-03-15T00:20:47.417Z,6.19
2019-03-15T00:21:47.411Z,6.21
2019-03-15T00:22:47.402Z,6.26
2019-03-15T00:23:47.384Z,6.26
2019-03-15T00:24:47.387Z,6.30
2019-03-15T00:25:47.368Z,6.19
2019-03-15T00:26:47.351Z,6.22
2019-03-15T00:27:47.339Z,6.10
2019-03-15T00:28:47.335Z,6.11
2019-03-15T00:29:47.331Z,6.13
2019-03-15T00:30:47.316Z,6.13
2019-03-15T00:31:47.307Z,6.10
2019-03-15T00:32:47.283Z,6.13
2019-03-15T00:33:47.271Z,6.29
2019-03-15T00:34:47.266Z,6.28
2019-03-15T00:35:47.248Z,6.29
2019-03-15T00:36:47.258Z,6.35
2019-03-15T00:37:47.238Z,6.36
2019-03-15T00:38:47.216Z,6.33
2019-03-15T00:39:47.539Z,6.32
2019-03-15T00:40:47.201Z,6.11
2019-03-15T00:41:47.181Z,6.22
2019-03-15T00:42:47.181Z,6.25
2019-03-15T00:43:49.465Z,6.16
2019-03-15T00:44:47.159Z,6.21
2019-03-15T00:45:47.144Z,6.26
2019-03-15T00:46:47.133Z,6.36
2019-03-15T00:47:47.139Z,6.33
2019-03-15T00:48:47.102Z,6.29
2019-03-15T00:49:47.265Z,6.30
2019-03-15T00:50:47.086Z,6.13
2019-03-15T00:51:47.068Z,6.13
2019-03-15T00:52:47.087Z,6.19
2019-03-15T00:53:47.059Z,6.14
2019-03-15T00:54:47.055Z,6.10
2019-03-15T00:55:47.033Z,6.11
2019-03-15T00:56:47.011Z,6.18
2019-03-15T00:57:47.035Z,6.28
2019-03-15T00:58:46.998Z,6.14
2019-03-15T00:59:46.980Z,6.11
2019-03-15T01:00:46.970Z,6.06
2019-03-15T01:01:46.956Z,6.10
2019-03-15T01:02:46.946Z,6.07
2019-03-15T01:03:46.946Z,6.06
2019-03-15T01:04:46.941Z,6.09
2019-03-15T01:05:46.920Z,6.09
2019-03-15T01:06:46.900Z,6.14
2019-03-15T01:07:46.895Z,6.13
2019-03-15T01:08:46.876Z,6.13
2019-03-15T01:09:46.888Z,6.11
2019-03-15T01:10:46.853Z,6.13
2019-03-15T01:11:46.855Z,6.06
2019-03-15T01:12:46.831Z,6.06
2019-03-15T01:13:46.819Z,5.93
2019-03-15T01:14:46.810Z,6.03
2019-03-15T01:15:46.812Z,6.06
2019-03-15T01:16:46.785Z,6.04
2019-03-15T01:17:46.783Z,6.01
2019-03-15T01:18:46.765Z,6.07
2019-03-15T01:19:46.775Z,6.03
2019-03-15T01:20:46.741Z,5.98
2019-03-15T01:21:46.731Z,6.10
2019-03-15T01:22:46.719Z,6.13
2019-03-15T01:23:46.737Z,6.10
2019-03-15T01:24:46.696Z,6.07
2019-03-15T01:25:46.698Z,6.07
2019-03-15T01:26:46.675Z,6.14
2019-03-15T01:27:46.665Z,6.01
2019-03-15T01:28:46.650Z,6.06
2019-03-15T01:29:46.655Z,6.01
2019-03-15T01:30:46.640Z,6.03
2019-03-15T01:31:46.619Z,6.04
2019-03-15T01:32:46.625Z,5.98
2019-03-15T01:33:46.595Z,5.98
2019-03-15T01:34:46.592Z,6.07
2019-03-15T01:35:46.591Z,6.01
2019-03-15T01:36:46.560Z,6.09
2019-03-15T01:37:46.561Z,6.07
2019-03-15T01:38:46.538Z,6.00
2019-03-15T01:39:46.527Z,6.09
2019-03-15T01:40:48.773Z,6.18
2019-03-15T01:41:46.509Z,6.16
2019-03-15T01:42:46.522Z,6.10
2019-03-15T01:43:46.481Z,6.14
2019-03-15T01:44:46.471Z,6.18
2019-03-15T01:45:46.478Z,6.13
2019-03-15T01:46:46.448Z,6.13
2019-03-15T01:47:46.441Z,6.13
2019-03-15T01:48:46.435Z,6.09
2019-03-15T01:49:46.414Z,6.09
2019-03-15T01:50:46.410Z,6.03
2019-03-15T01:51:46.392Z,6.00
2019-03-15T01:52:46.387Z,5.95
2019-03-15T01:53:46.422Z,5.91
2019-03-15T01:54:46.356Z,5.93
2019-03-15T01:55:46.346Z,5.85
2019-03-15T01:56:46.335Z,5.78
2019-03-15T01:57:46.326Z,5.81
2019-03-15T01:58:46.314Z,5.81
2019-03-15T01:59:46.321Z,5.88
2019-03-15T02:00:46.289Z,5.81
2019-03-15T02:01:46.279Z,5.96
2019-03-15T02:02:46.268Z,6.00
2019-03-15T02:03:46.256Z,5.96
2019-03-15T02:04:46.268Z,5.89
2019-03-15T02:05:46.251Z,6.00
2019-03-15T02:06:46.221Z,5.93
2019-03-15T02:07:46.210Z,5.86
2019-03-15T02:08:46.200Z,5.92
2019-03-15T02:09:46.186Z,6.00
2019-03-15T02:10:46.188Z,6.01
2019-03-15T02:11:46.172Z,6.03
2019-03-15T02:12:46.156Z,6.07
2019-03-15T02:13:46.142Z,6.04
2019-03-15T02:14:46.135Z,6.10
2019-03-15T02:15:46.134Z,6.14
2019-03-15T02:16:46.113Z,6.14
2019-03-15T02:17:46.116Z,6.13
2019-03-15T02:18:46.087Z,6.11
2019-03-15T02:19:46.076Z,6.13
2019-03-15T02:20:46.064Z,6.16
2019-03-15T02:21:46.053Z,6.19
2019-03-15T02:22:46.051Z,6.28
2019-03-15T02:23:46.038Z,6.33
2019-03-15T02:24:46.019Z,6.36
2019-03-15T02:25:46.023Z,6.33
2019-03-15T02:26:45.994Z,6.33
2019-03-15T02:27:45.997Z,6.32
2019-03-15T02:28:46.007Z,6.30
2019-03-15T02:29:45.979Z,6.29
2019-03-15T02:30:45.951Z,6.22
2019-03-15T02:31:47.097Z,6.16
2019-03-15T02:32:45.939Z,6.16
2019-03-15T02:33:45.920Z,6.13
2019-03-15T02:34:45.918Z,6.10
2019-03-15T02:35:47.107Z,6.09
2019-03-15T02:36:45.897Z,6.13
2019-03-15T02:37:45.876Z,6.16
2019-03-15T02:38:45.862Z,5.96
2019-03-15T02:39:46.287Z,5.98
2019-03-15T02:40:45.841Z,5.96
2019-03-15T02:41:45.834Z,5.95
2019-03-15T02:42:45.829Z,6.10
2019-03-15T02:43:46.136Z,5.95
2019-03-15T02:44:45.796Z,5.98
2019-03-15T02:45:45.807Z,5.91
2019-03-15T02:46:45.773Z,5.85
2019-03-15T02:47:46.572Z,5.92
2019-03-15T02:48:45.764Z,5.78
2019-03-15T02:49:45.740Z,5.71
2019-03-15T02:50:45.726Z,5.89
2019-03-15T02:51:45.715Z,5.89
2019-03-15T02:52:45.705Z,5.81
2019-03-15T02:53:45.714Z,5.78
2019-03-15T02:54:45.683Z,5.91
2019-03-15T02:55:45.674Z,5.81
2019-03-15T02:56:45.671Z,5.95
2019-03-15T02:57:45.655Z,5.98
2019-03-15T02:58:45.654Z,6.01
2019-03-15T02:59:47.131Z,5.95
2019-03-15T03:00:45.646Z,6.01
2019-03-15T03:01:45.606Z,6.00
2019-03-15T03:02:45.614Z,5.98
2019-03-15T03:03:47.143Z,6.06
2019-03-15T03:04:45.569Z,6.09
2019-03-15T03:05:45.573Z,6.18
2019-03-15T03:06:45.552Z,6.16
2019-03-15T03:07:45.535Z,6.11
2019-03-15T03:08:45.552Z,6.14
2019-03-15T03:09:45.513Z,6.11
2019-03-15T03:10:45.506Z,6.11
2019-03-15T03:11:45.505Z,6.13
2019-03-15T03:12:45.484Z,6.10
2019-03-15T03:13:45.475Z,6.11
2019-03-15T03:14:45.470Z,6.13
2019-03-15T03:15:45.446Z,6.10
2019-03-15T03:16:46.142Z,6.13
2019-03-15T03:17:45.436Z,6.07
2019-03-15T03:18:45.424Z,6.04
2019-03-15T03:19:45.401Z,6.07
2019-03-15T03:20:45.395Z,6.01
2019-03-15T03:21:45.377Z,6.00
2019-03-15T03:22:45.371Z,5.92
2019-03-15T03:23:45.381Z,5.86
2019-03-15T03:24:45.346Z,5.92
2019-03-15T03:25:45.346Z,5.91
2019-03-15T03:26:45.333Z,5.88
2019-03-15T03:27:45.312Z,5.88
2019-03-15T03:28:45.306Z,5.86
2019-03-15T03:29:45.298Z,5.88
2019-03-15T03:30:46.609Z,6.06
2019-03-15T03:31:46.001Z,5.98
2019-03-15T03:32:45.268Z,5.98
2019-03-15T03:33:45.264Z,5.95
2019-03-15T03:34:45.235Z,6.03
2019-03-15T03:35:45.244Z,5.98
2019-03-15T03:36:45.223Z,6.03
2019-03-15T03:37:45.533Z,6.00
2019-03-15T03:38:45.186Z,6.01
2019-03-15T03:39:45.183Z,6.06
2019-03-15T03:40:45.164Z,6.01
2019-03-15T03:41:45.173Z,6.00
2019-03-15T03:42:45.321Z,6.01
2019-03-15T03:43:45.157Z,5.91
2019-03-15T03:44:45.121Z,5.98
2019-03-15T03:45:45.107Z,5.95
2019-03-15T03:46:45.098Z,5.95
2019-03-15T03:47:45.085Z,5.86
2019-03-15T03:48:45.107Z,5.96
2019-03-15T03:49:45.071Z,5.92
2019-03-15T03:50:45.053Z,5.86
2019-03-15T03:51:45.040Z,5.86
2019-03-15T03:52:45.030Z,5.86
2019-03-15T03:53:45.018Z,5.85
2019-03-15T03:54:45.027Z,5.78
2019-03-15T03:55:44.995Z,5.75
2019-03-15T03:56:44.997Z,5.81
2019-03-15T03:57:44.972Z,5.68
2019-03-15T03:58:44.963Z,5.78
2019-03-15T03:59:44.997Z,5.82
2019-03-15T04:00:44.945Z,5.74
2019-03-15T04:01:44.930Z,5.77
2019-03-15T04:02:44.925Z,5.71
2019-03-15T04:03:44.906Z,5.71
2019-03-15T04:04:44.895Z,5.66
2019-03-15T04:05:44.900Z,5.57
2019-03-15T04:06:44.878Z,5.60
2019-03-15T04:07:44.876Z,5.64
2019-03-15T04:08:44.850Z,5.59
2019-03-15T04:09:44.839Z,5.71
2019-03-15T04:10:44.840Z,5.59
2019-03-15T04:11:54.843Z,5.57
2019-03-15T04:12:45.811Z,5.59
2019-03-15T04:13:44.801Z,5.56
2019-03-15T04:14:44.780Z,5.64
2019-03-15T04:15:44.784Z,5.60
2019-03-15T04:16:44.758Z,5.60
2019-03-15T04:17:44.748Z,5.67
2019-03-15T04:18:44.741Z,5.66
2019-03-15T04:19:44.731Z,5.68
2019-03-15T04:20:44.741Z,5.60
2019-03-15T04:21:44.710Z,5.55
2019-03-15T04:22:44.695Z,5.55
2019-03-15T04:23:44.681Z,5.52
2019-03-15T04:24:44.670Z,5.57
2019-03-15T04:25:44.664Z,5.55
2019-03-15T04:26:44.659Z,5.70
2019-03-15T04:27:44.634Z,5.73
2019-03-15T04:28:44.648Z,5.68
2019-03-15T04:29:44.614Z,5.83
2019-03-15T04:30:44.602Z,5.82
2019-03-15T04:31:44.597Z,5.91
2019-03-15T04:32:44.582Z,5.96
2019-03-15T04:33:44.570Z,5.78
2019-03-15T04:34:44.578Z,5.93
2019-03-15T04:35:44.546Z,5.85
2019-03-15T04:36:44.544Z,5.88
2019-03-15T04:37:44.531Z,5.93
2019-03-15T04:38:44.510Z,5.96
2019-03-15T04:39:44.524Z,6.01
2019-03-15T04:40:44.493Z,6.00
2019-03-15T04:41:44.478Z,5.95
2019-03-15T04:42:44.467Z,5.95
2019-03-15T04:43:44.462Z,5.93
2019-03-15T04:44:44.493Z,6.01
2019-03-15T04:45:44.438Z,5.96
2019-03-15T04:46:44.428Z,6.04
2019-03-15T04:47:44.412Z,6.03
2019-03-15T04:48:44.401Z,6.00
2019-03-15T04:49:44.406Z,6.03
2019-03-15T04:50:44.393Z,6.04
2019-03-15T04:51:44.365Z,6.13
2019-03-15T04:52:44.357Z,6.13
2019-03-15T04:53:44.361Z,6.16
2019-03-15T04:54:44.333Z,6.14
2019-03-15T04:55:44.330Z,6.14
2019-03-15T04:56:44.317Z,6.14
2019-03-15T04:57:44.299Z,6.09
2019-03-15T04:58:44.325Z,6.06
2019-03-15T04:59:44.280Z,6.10
2019-03-15T05:00:44.266Z,6.03
2019-03-15T05:01:44.255Z,6.01
2019-03-15T05:02:44.252Z,6.01
2019-03-15T05:03:44.232Z,5.95
2019-03-15T05:04:44.235Z,5.96
2019-03-15T05:05:44.211Z,6.01
2019-03-15T05:06:44.199Z,5.93
2019-03-15T05:07:44.187Z,6.01
2019-03-15T05:08:44.183Z,6.07
2019-03-15T05:09:44.179Z,6.00
2019-03-15T05:10:44.156Z,6.07
2019-03-15T05:11:44.141Z,5.98
2019-03-15T05:12:44.133Z,6.07
2019-03-15T05:13:44.142Z,5.91
2019-03-15T05:14:44.114Z,6.01
2019-03-15T05:15:44.100Z,5.95
2019-03-15T05:16:44.087Z,6.07
2019-03-15T05:17:44.074Z,6.01
2019-03-15T05:18:44.071Z,5.96
2019-03-15T05:19:44.065Z,5.91
2019-03-15T05:20:44.049Z,5.93
2019-03-15T05:21:44.031Z,6.01
2019-03-15T05:22:44.020Z,5.96
2019-03-15T05:23:44.009Z,5.98
2019-03-15T05:24:44.009Z,6.00
2019-03-15T05:25:44.019Z,6.00
2019-03-15T05:26:43.985Z,6.07
2019-03-15T05:27:43.969Z,6.07
2019-03-15T05:28:43.953Z,5.96
2019-03-15T05:29:43.942Z,5.98
2019-03-15T05:30:43.931Z,5.96
2019-03-15T05:31:43.957Z,6.00
2019-03-15T05:32:43.921Z,5.88
2019-03-15T05:33:43.897Z,5.96
2019-03-15T05:34:43.935Z,5.91
2019-03-15T05:35:43.874Z,5.88
2019-03-15T05:36:43.862Z,5.85
2019-03-15T05:37:43.873Z,5.86
2019-03-15T05:38:43.847Z,5.81
2019-03-15T05:39:43.832Z,5.88
2019-03-15T05:40:43.819Z,5.91
2019-03-15T05:41:43.807Z,5.88
2019-03-15T05:42:43.796Z,6.01
2019-03-15T05:43:43.804Z,5.95
2019-03-15T05:44:43.783Z,6.03
2019-03-15T05:45:43.769Z,6.00
2019-03-15T05:46:43.753Z,6.03
2019-03-15T05:47:43.739Z,6.06
2019-03-15T05:48:43.744Z,6.00
2019-03-15T05:49:43.718Z,6.07
2019-03-15T05:50:43.706Z,6.06
2019-03-15T05:51:43.700Z,6.06
2019-03-15T05:52:43.686Z,6.06
2019-03-15T05:53:43.687Z,6.11
2019-03-15T05:54:43.662Z,6.11
2019-03-15T05:55:43.653Z,6.13
2019-03-15T05:56:43.639Z,6.16
2019-03-15T05:57:43.635Z,6.11
2019-03-15T05:58:45.384Z,6.11
2019-03-15T05:59:43.803Z,6.09
2019-03-15T06:00:43.607Z,6.11
2019-03-15T06:01:43.592Z,6.11
2019-03-15T06:02:43.572Z,6.22
2019-03-15T06:03:48.852Z,6.18
2019-03-15T06:04:44.557Z,6.18
2019-03-15T06:05:43.552Z,6.13
2019-03-15T06:06:43.529Z,6.14
2019-03-15T06:07:43.517Z,6.18
2019-03-15T06:08:43.509Z,6.19
2019-03-15T06:09:43.512Z,6.16
2019-03-15T06:10:43.496Z,6.18
2019-03-15T06:11:43.472Z,6.18
2019-03-15T06:12:43.468Z,6.16
2019-03-15T06:13:43.450Z,6.14
2019-03-15T06:14:46.680Z,6.16
2019-03-15T06:15:43.447Z,6.10
2019-03-15T06:16:43.428Z,6.19
2019-03-15T06:17:43.405Z,6.22
2019-03-15T06:18:43.393Z,6.22
2019-03-15T06:19:43.384Z,6.25
2019-03-15T06:20:43.388Z,6.26
2019-03-15T06:21:43.361Z,6.29
2019-03-15T06:22:43.376Z,6.26
2019-03-15T06:23:43.350Z,6.28
2019-03-15T06:24:43.332Z,6.32
2019-03-15T06:25:43.330Z,6.25
2019-03-15T06:26:43.307Z,6.35
2019-03-15T06:27:43.304Z,6.36
2019-03-15T06:28:43.289Z,6.28
2019-03-15T06:29:43.279Z,6.30
2019-03-15T06:30:43.258Z,6.26
2019-03-15T06:31:43.251Z,6.36
2019-03-15T06:32:43.280Z,6.38
2019-03-15T06:33:43.232Z,6.38
2019-03-15T06:34:43.219Z,6.30
2019-03-15T06:35:43.216Z,6.35
2019-03-15T06:36:43.193Z,6.38
2019-03-15T06:37:43.180Z,6.46
2019-03-15T06:38:43.294Z,6.41
2019-03-15T06:39:43.167Z,6.48
2019-03-15T06:40:43.149Z,6.46
2019-03-15T06:41:43.146Z,6.46
2019-03-15T06:42:43.128Z,6.44
2019-03-15T06:43:43.122Z,6.54
2019-03-15T06:44:43.117Z,6.54
2019-03-15T06:45:43.095Z,6.51
2019-03-15T06:46:43.087Z,6.53
2019-03-15T06:47:43.074Z,6.53
2019-03-15T06:48:45.044Z,6.65
2019-03-15T06:49:43.082Z,6.61
2019-03-15T06:50:43.037Z,6.65
2019-03-15T06:51:43.045Z,6.59
2019-03-15T06:52:43.018Z,6.63
2019-03-15T06:53:43.017Z,6.61
2019-03-15T06:54:42.991Z,6.56
2019-03-15T06:55:42.995Z,6.59
2019-03-15T06:56:42.969Z,6.62
2019-03-15T06:57:42.958Z,6.63
2019-03-15T06:58:42.955Z,6.62
2019-03-15T06:59:42.941Z,6.68
2019-03-15T07:00:42.938Z,6.68
2019-03-15T07:01:42.913Z,6.72
2019-03-15T07:02:42.909Z,6.69
2019-03-15T07:03:42.890Z,6.63
2019-03-15T07:04:42.880Z,6.68
2019-03-15T07:05:42.909Z,6.66
2019-03-15T07:06:42.982Z,6.66
2019-03-15T07:07:42.845Z,6.79
2019-03-15T07:08:42.833Z,6.72
2019-03-15T07:09:42.824Z,6.77
2019-03-15T07:10:44.106Z,6.73
2019-03-15T07:11:42.817Z,6.83
2019-03-15T07:12:42.793Z,6.79
2019-03-15T07:13:42.778Z,6.76
2019-03-15T07:14:42.787Z,6.87
2019-03-15T07:15:44.346Z,6.89
2019-03-15T07:16:42.756Z,6.95
2019-03-15T07:17:42.736Z,6.94
2019-03-15T07:18:42.729Z,6.94
2019-03-15T07:19:42.710Z,6.89
2019-03-15T07:20:42.698Z,6.95
2019-03-15T07:21:42.713Z,6.95
2019-03-15T07:22:42.678Z,6.95
2019-03-15T07:23:42.664Z,7.01
2019-03-15T07:24:43.906Z,6.94
2019-03-15T07:25:42.653Z,6.98
2019-03-15T07:26:43.874Z,6.95
2019-03-15T07:27:43.188Z,7.02
2019-03-15T07:28:42.613Z,7.05
2019-03-15T07:29:42.601Z,7.04
2019-03-15T07:30:42.586Z,7.09
2019-03-15T07:31:42.588Z,7.07
2019-03-15T07:32:42.606Z,7.12
2019-03-15T07:33:42.553Z,7.13
2019-03-15T07:34:42.548Z,7.16
2019-03-15T07:35:42.530Z,7.13
2019-03-15T07:36:42.526Z,7.24
2019-03-15T07:37:45.293Z,7.19
2019-03-15T07:38:42.508Z,7.29
2019-03-15T07:39:42.485Z,7.26
2019-03-15T07:40:42.473Z,7.23
2019-03-15T07:41:42.462Z,7.27
2019-03-15T07:42:42.460Z,7.32
2019-03-15T07:43:42.453Z,7.31
2019-03-15T07:44:42.433Z,7.29
2019-03-15T07:45:42.417Z,7.32
2019-03-15T07:46:42.410Z,7.42
2019-03-15T07:47:42.404Z,7.35
2019-03-15T07:48:42.430Z,7.42
2019-03-15T07:49:42.374Z,7.32
2019-03-15T07:50:42.361Z,7.37
2019-03-15T07:51:42.355Z,7.45
2019-03-15T07:52:42.341Z,7.47
2019-03-15T07:53:42.328Z,7.47
2019-03-15T07:54:42.333Z,7.45
2019-03-15T07:55:42.311Z,7.47
2019-03-15T07:56:42.294Z,7.47
2019-03-15T07:57:42.283Z,7.42
2019-03-15T07:58:42.271Z,7.50
2019-03-15T07:59:42.294Z,7.45
2019-03-15T08:00:42.255Z,7.47
2019-03-15T08:01:42.240Z,7.45
2019-03-15T08:02:42.229Z,7.47
2019-03-15T08:03:42.215Z,7.56
2019-03-15T08:04:42.205Z,7.60
2019-03-15T08:05:42.210Z,7.56
2019-03-15T08:06:42.194Z,7.71
2019-03-15T08:07:45.383Z,7.67
2019-03-15T08:08:42.304Z,7.81
2019-03-15T08:09:42.147Z,7.84
2019-03-15T08:10:42.169Z,7.94
2019-03-15T08:11:42.126Z,7.97
2019-03-15T08:12:42.118Z,7.96
2019-03-15T08:13:42.112Z,7.89
2019-03-15T08:14:42.100Z,7.89
2019-03-15T08:15:42.080Z,7.90
2019-03-15T08:16:42.084Z,7.87
2019-03-15T08:17:42.066Z,7.89
2019-03-15T08:18:42.048Z,7.85
2019-03-15T08:19:42.044Z,8.02
2019-03-15T08:20:42.026Z,7.97
2019-03-15T08:21:42.038Z,7.94
2019-03-15T08:22:42.002Z,8.03
2019-03-15T08:23:41.990Z,7.96
2019-03-15T08:24:51.525Z,8.02
2019-03-15T08:25:42.972Z,7.99
2019-03-15T08:26:41.965Z,7.99
2019-03-15T08:27:42.059Z,7.94
2019-03-15T08:28:41.940Z,7.87
2019-03-15T08:29:41.927Z,7.94
2019-03-15T08:30:41.912Z,7.84
2019-03-15T08:31:41.904Z,7.89
2019-03-15T08:32:43.689Z,8.03
2019-03-15T08:33:41.883Z,7.92
2019-03-15T08:34:41.873Z,7.93
2019-03-15T08:35:41.858Z,8.02
2019-03-15T08:36:41.847Z,8.04
2019-03-15T08:37:41.841Z,8.07
2019-03-15T08:38:47.375Z,8.14
2019-03-15T08:39:42.821Z,8.20
2019-03-15T08:40:41.802Z,8.26
2019-03-15T08:41:41.792Z,8.33
2019-03-15T08:42:41.785Z,8.37
2019-03-15T08:43:41.778Z,8.42
2019-03-15T08:44:41.759Z,8.40
2019-03-15T08:45:41.748Z,8.30
2019-03-15T08:46:41.735Z,8.36
2019-03-15T08:47:41.721Z,8.40
2019-03-15T08:48:41.728Z,8.29
2019-03-15T08:49:41.703Z,8.40
2019-03-15T08:50:41.686Z,8.29
2019-03-15T08:51:41.680Z,8.32
2019-03-15T08:52:42.241Z,8.20
2019-03-15T08:53:41.653Z,8.21
2019-03-15T08:54:41.687Z,8.11
2019-03-15T08:55:41.632Z,7.97
2019-03-15T08:56:41.618Z,8.00
2019-03-15T08:57:41.609Z,8.08
2019-03-15T08:58:41.598Z,8.12
2019-03-15T08:59:53.812Z,8.02
2019-03-15T09:00:42.585Z,7.97
2019-03-15T09:01:41.563Z,8.07
2019-03-15T09:02:41.556Z,8.07
2019-03-15T09:03:41.539Z,7.93
2019-03-15T09:04:41.534Z,7.89
2019-03-15T09:05:41.530Z,8.02
2019-03-15T09:06:41.506Z,7.99
2019-03-15T09:07:41.494Z,7.94
2019-03-15T09:08:41.483Z,7.93
2019-03-15T09:09:41.472Z,7.90
2019-03-15T09:10:41.484Z,7.89
2019-03-15T09:11:41.453Z,7.89
2019-03-15T09:12:41.440Z,7.90
2019-03-15T09:13:41.426Z,7.94
2019-03-15T09:14:41.422Z,7.85
2019-03-15T09:15:41.430Z,7.90
2019-03-15T09:16:41.393Z,7.96
2019-03-15T09:17:41.392Z,8.00
2019-03-15T09:18:41.411Z,8.00
2019-03-15T09:19:41.362Z,8.02
2019-03-15T09:20:41.348Z,7.99
2019-03-15T09:21:41.413Z,7.94
2019-03-15T09:22:41.325Z,8.00
2019-03-15T09:23:41.328Z,8.08
2019-03-15T09:24:41.314Z,8.03
2019-03-15T09:25:41.296Z,8.07
2019-03-15T09:26:41.294Z,8.21
2019-03-15T09:27:41.273Z,8.17
2019-03-15T09:28:41.256Z,8.10
2019-03-15T09:29:41.245Z,8.10
2019-03-15T09:30:41.246Z,8.03
2019-03-15T09:31:47.541Z,8.03
2019-03-15T09:32:42.211Z,8.02
2019-03-15T09:33:41.200Z,8.08
2019-03-15T09:34:41.190Z,8.04
2019-03-15T09:35:41.193Z,8.02
2019-03-15T09:36:49.835Z,8.15
2019-03-15T09:37:42.153Z,8.21
2019-03-15T09:38:41.151Z,8.30
2019-03-15T09:39:41.133Z,8.32
2019-03-15T09:40:41.124Z,8.37
2019-03-15T09:41:41.128Z,8.28
2019-03-15T09:42:41.106Z,8.32
2019-03-15T09:43:41.089Z,8.26
2019-03-15T09:44:41.078Z,8.30
2019-03-15T09:45:41.066Z,8.30
2019-03-15T09:46:41.086Z,8.26
2019-03-15T09:47:41.042Z,8.33
2019-03-15T09:48:43.660Z,8.28
2019-03-15T09:49:41.026Z,8.29
2019-03-15T09:50:51.296Z,8.29
2019-03-15T09:51:42.026Z,8.18
2019-03-15T09:52:40.987Z,8.07
2019-03-15T09:53:40.975Z,8.08
2019-03-15T09:54:40.963Z,8.00
2019-03-15T09:55:40.957Z,7.87
2019-03-15T09:56:40.943Z,7.81
2019-03-15T09:57:40.965Z,7.79
2019-03-15T09:58:40.917Z,7.75
2019-03-15T09:59:40.907Z,7.77
2019-03-15T10:00:40.893Z,7.72
2019-03-15T10:01:40.897Z,7.69
2019-03-15T10:02:40.875Z,7.75
2019-03-15T10:03:40.909Z,7.63
2019-03-15T10:04:40.859Z,7.71
2019-03-15T10:05:40.846Z,7.63
2019-03-15T10:06:40.835Z,7.66
2019-03-15T10:07:43.270Z,7.77
2019-03-15T10:08:40.802Z,7.77
2019-03-15T10:09:46.074Z,7.81
2019-03-15T10:10:41.779Z,7.82
2019-03-15T10:11:40.780Z,7.81
2019-03-15T10:12:40.760Z,7.87
2019-03-15T10:13:40.747Z,7.90
2019-03-15T10:14:40.766Z,7.97
2019-03-15T10:15:40.765Z,7.99
2019-03-15T10:16:40.714Z,7.97
2019-03-15T10:17:40.706Z,8.04
2019-03-15T10:18:40.694Z,8.10
2019-03-15T10:19:40.679Z,8.02
2019-03-15T10:20:40.684Z,8.08
2019-03-15T10:21:40.656Z,8.00
2019-03-15T10:22:40.647Z,8.08
2019-03-15T10:23:40.665Z,8.04
2019-03-15T10:24:40.627Z,8.07
2019-03-15T10:25:46.791Z,8.03
2019-03-15T10:26:41.616Z,8.02
2019-03-15T10:27:40.593Z,7.97
2019-03-15T10:28:40.581Z,7.84
2019-03-15T10:29:40.576Z,7.78
2019-03-15T10:30:40.572Z,7.79
2019-03-15T10:31:40.546Z,7.74
2019-03-15T10:32:40.543Z,7.62
2019-03-15T10:33:49.852Z,7.62
2019-03-15T10:34:41.526Z,7.59
2019-03-15T10:35:40.507Z,7.63
2019-03-15T10:36:40.490Z,7.56
2019-03-15T10:37:40.479Z,7.69
2019-03-15T10:38:40.468Z,7.62
2019-03-15T10:39:40.471Z,7.67
2019-03-15T10:40:40.447Z,7.75
2019-03-15T10:41:40.449Z,7.84
2019-03-15T10:42:40.424Z,7.84
2019-03-15T10:43:40.412Z,7.90
2019-03-15T10:44:40.403Z,7.92
2019-03-15T10:45:40.391Z,7.85
2019-03-15T10:46:40.561Z,7.90
2019-03-15T10:47:42.450Z,7.97
2019-03-15T10:48:40.355Z,8.04
2019-03-15T10:49:40.349Z,8.00
2019-03-15T10:50:40.333Z,8.10
2019-03-15T10:51:40.335Z,8.11
2019-03-15T10:52:40.311Z,8.21
2019-03-15T10:53:40.305Z,8.26
2019-03-15T10:54:40.292Z,8.26
2019-03-15T10:55:40.283Z,8.32
2019-03-15T10:56:40.290Z,8.39
2019-03-15T10:57:40.254Z,8.44
2019-03-15T10:58:40.254Z,8.48
2019-03-15T10:59:40.234Z,8.58
2019-03-15T11:00:40.220Z,8.65
2019-03-15T11:01:40.226Z,8.69
2019-03-15T11:02:40.196Z,8.57
2019-03-15T11:03:40.185Z,8.42
2019-03-15T11:04:40.173Z,8.39
2019-03-15T11:05:40.166Z,8.29
2019-03-15T11:06:40.185Z,8.33
2019-03-15T11:07:40.148Z,8.42
2019-03-15T11:08:40.169Z,8.26
2019-03-15T11:09:40.117Z,8.29
2019-03-15T11:10:40.107Z,8.21
2019-03-15T11:11:40.100Z,8.15
2019-03-15T11:12:40.088Z,8.20
2019-03-15T11:13:40.081Z,8.14
2019-03-15T11:14:40.073Z,8.22
2019-03-15T11:15:40.052Z,8.28
2019-03-15T11:16:40.039Z,8.26
2019-03-15T11:17:40.025Z,8.22
2019-03-15T11:18:40.016Z,8.21
2019-03-15T11:19:40.021Z,8.10
2019-03-15T11:20:39.998Z,8.17
2019-03-15T11:21:39.981Z,8.18
2019-03-15T11:22:39.970Z,8.25
2019-03-15T11:23:39.956Z,8.18
2019-03-15T11:24:39.959Z,8.17
2019-03-15T11:25:39.935Z,8.21
2019-03-15T11:26:39.935Z,8.17
2019-03-15T11:27:39.918Z,8.11
2019-03-15T11:28:39.901Z,8.15
2019-03-15T11:29:39.922Z,8.07
2019-03-15T11:30:39.886Z,8.15
2019-03-15T11:31:39.866Z,8.37
2019-03-15T11:32:39.856Z,8.42
2019-03-15T11:33:39.847Z,8.62
2019-03-15T11:34:39.840Z,8.62
2019-03-15T11:35:39.835Z,8.42
2019-03-15T11:36:39.850Z,8.26
2019-03-15T11:37:39.801Z,8.17
2019-03-15T11:38:39.793Z,8.11
2019-03-15T11:39:39.777Z,8.08
2019-03-15T11:40:39.771Z,8.11
2019-03-15T11:41:39.760Z,8.07
2019-03-15T11:42:39.756Z,8.04
2019-03-15T11:43:39.732Z,8.18
2019-03-15T11:44:39.721Z,8.22
2019-03-15T11:45:39.745Z,8.30
2019-03-15T11:46:39.700Z,8.28
2019-03-15T11:47:50.732Z,8.28
2019-03-15T11:48:40.673Z,8.26
2019-03-15T11:49:39.662Z,8.26
2019-03-15T11:50:39.652Z,8.22
2019-03-15T11:51:42.441Z,8.28
2019-03-15T11:52:39.647Z,8.32
2019-03-15T11:53:39.622Z,8.40
2019-03-15T11:54:39.605Z,8.42
2019-03-15T11:55:39.595Z,8.51
2019-03-15T11:56:39.585Z,8.51
2019-03-15T11:57:39.606Z,8.51
2019-03-15T11:58:39.563Z,8.51
2019-03-15T11:59:39.551Z,8.48
2019-03-15T12:00:39.543Z,8.50
2019-03-15T12:01:39.528Z,8.65
2019-03-15T12:02:39.518Z,8.60
2019-03-15T12:03:52.102Z,8.73
2019-03-15T12:04:40.489Z,8.87
2019-03-15T12:05:39.480Z,8.76
2019-03-15T12:06:39.489Z,8.68
2019-03-15T12:07:39.456Z,8.66
2019-03-15T12:08:39.460Z,8.62
2019-03-15T12:09:41.000Z,8.58
2019-03-15T12:10:39.432Z,8.60
2019-03-15T12:11:39.412Z,8.58
2019-03-15T12:12:39.406Z,8.65
2019-03-15T12:13:39.419Z,8.68
2019-03-15T12:14:41.085Z,8.58
2019-03-15T12:15:39.372Z,8.58
2019-03-15T12:16:39.355Z,8.62
2019-03-15T12:17:39.344Z,8.50
2019-03-15T12:18:39.346Z,8.60
2019-03-15T12:19:39.367Z,8.51
2019-03-15T12:20:39.318Z,8.55
2019-03-15T12:21:39.299Z,8.50
2019-03-15T12:22:39.287Z,8.51
2019-03-15T12:23:39.274Z,8.53
2019-03-15T12:24:39.273Z,8.60
2019-03-15T12:25:39.267Z,8.58
2019-03-15T12:26:40.605Z,8.63
2019-03-15T12:27:39.228Z,8.53
2019-03-15T12:28:39.219Z,8.44
2019-03-15T12:29:39.208Z,8.47
2019-03-15T12:30:39.215Z,8.37
2019-03-15T12:31:39.186Z,8.44
2019-03-15T12:32:39.172Z,8.32
2019-03-15T12:33:39.169Z,8.29
2019-03-15T12:34:39.152Z,8.21
2019-03-15T12:35:39.151Z,8.15
2019-03-15T12:36:39.131Z,8.25
2019-03-15T12:37:39.116Z,8.15
2019-03-15T12:38:39.106Z,8.18
2019-03-15T12:39:39.094Z,8.02
2019-03-15T12:40:39.096Z,8.14
2019-03-15T12:41:39.074Z,8.07
2019-03-15T12:42:39.161Z,8.10
2019-03-15T12:43:39.052Z,8.12
2019-03-15T12:44:39.039Z,8.11
2019-03-15T12:45:39.044Z,8.04
2019-03-15T12:46:39.016Z,8.07
2019-03-15T12:47:39.006Z,8.10
2019-03-15T12:48:39.002Z,8.11
2019-03-15T12:49:38.988Z,8.15
2019-03-15T12:50:38.984Z,8.17
2019-03-15T12:51:38.966Z,8.26
2019-03-15T12:52:47.132Z,8.28
2019-03-15T12:53:39.948Z,8.17
2019-03-15T12:54:38.939Z,8.14
2019-03-15T12:55:38.917Z,8.20
2019-03-15T12:56:38.916Z,8.22
2019-03-15T12:57:38.892Z,8.29
2019-03-15T12:58:38.882Z,8.32
2019-03-15T12:59:38.869Z,8.30
2019-03-15T13:00:38.863Z,8.32
2019-03-15T13:01:38.870Z,8.18
2019-03-15T13:02:38.926Z,8.20
2019-03-15T13:03:38.827Z,8.30
2019-03-15T13:04:38.816Z,8.22
2019-03-15T13:05:38.802Z,8.26
2019-03-15T13:06:38.809Z,8.37
2019-03-15T13:07:38.780Z,8.54
2019-03-15T13:08:38.778Z,8.62
2019-03-15T13:09:38.772Z,8.73
2019-03-15T13:10:38.754Z,8.86
2019-03-15T13:11:38.740Z,8.90
2019-03-15T13:12:38.761Z,8.91
2019-03-15T13:13:38.731Z,8.97
2019-03-15T13:14:38.713Z,8.94
2019-03-15T13:15:38.699Z,8.99
2019-03-15T13:16:38.680Z,8.99
2019-03-15T13:17:38.670Z,9.06
2019-03-15T13:18:38.674Z,9.06